createdAt,value
2022-08-11T00:01:10.141Z,9.43
2022-08-11T00:03:44.273Z,11.13
2022-08-11T00:06:14.683Z,8.25
2022-08-11T00:08:46.788Z,6.97
2022-08-11T00:11:17.546Z,8.35
2022-08-11T00:13:51.458Z,11.82
2022-08-11T00:16:21.820Z,8.00
2022-08-11T00:18:53.393Z,8.57
2022-08-11T00:22:03.914Z,11.13
2022-08-11T00:24:18.067Z,9.82
2022-08-11T00:26:54.885Z,7.85
2022-08-11T00:29:24.959Z,10.65
2022-08-11T00:31:55.447Z,10.40
2022-08-11T00:34:28.760Z,13.73
2022-08-11T00:37:06.757Z,10.27
2022-08-11T00:39:48.455Z,11.50
2022-08-11T00:42:21.838Z,13.38
2022-08-11T00:45:02.800Z,13.52
2022-08-11T00:47:47.413Z,13.55
2022-08-11T00:50:29.368Z,13.73
2022-08-11T00:53:11.475Z,12.25
2022-08-11T00:55:57.768Z,14.45
2022-08-11T00:58:51.081Z,10.52
2022-08-11T01:01:29.372Z,11.10
2022-08-11T01:04:14.080Z,14.65
2022-08-11T01:07:01.254Z,9.45
2022-08-11T01:09:35.539Z,10.80
2022-08-11T01:12:16.916Z,11.02
2022-08-11T01:15:04.118Z,10.53
2022-08-11T01:17:56.828Z,9.38
2022-08-11T01:20:48.353Z,9.85
2022-08-11T01:23:44.482Z,8.95
2022-08-11T01:26:35.262Z,8.85
2022-08-11T01:29:23.448Z,9.55
2022-08-11T01:32:05.007Z,11.70
2022-08-11T01:35:09.014Z,7.90
2022-08-11T01:38:10.845Z,10.07
2022-08-11T01:41:10.287Z,9.43
2022-08-11T01:44:20.192Z,9.18
2022-08-11T01:46:55.388Z,11.30
2022-08-11T01:50:05.127Z,10.13
2022-08-11T01:52:30.155Z,9.85
2022-08-11T01:55:14.354Z,12.50
2022-08-11T01:57:48.478Z,7.93
2022-08-11T02:00:18.680Z,12.65
2022-08-11T02:02:54.154Z,9.55
2022-08-11T02:05:28.289Z,10.43
2022-08-11T02:08:02.178Z,12.27
2022-08-11T02:10:57.844Z,12.48
2022-08-11T02:13:38.951Z,11.23
2022-08-11T02:16:19.078Z,13.48
2022-08-11T02:19:09.224Z,12.82
2022-08-11T02:22:01.860Z,9.77
2022-08-11T02:24:36.199Z,8.57
2022-08-11T02:27:09.817Z,9.18
2022-08-11T02:29:48.079Z,11.02
2022-08-11T02:32:38.508Z,8.90
2022-08-11T02:35:21.117Z,15.75
2022-08-11T02:38:01.030Z,11.77
2022-08-11T02:40:38.163Z,9.70
2022-08-11T02:43:12.840Z,8.65
2022-08-11T02:45:49.866Z,8.93
2022-08-11T02:48:44.017Z,10.07
2022-08-11T02:51:22.004Z,8.75
2022-08-11T02:53:58.003Z,8.52
2022-08-11T02:56:37.338Z,9.68
2022-08-11T02:59:33.155Z,7.45
2022-08-11T03:02:06.083Z,9.80
2022-08-11T03:04:39.775Z,8.82
2022-08-11T03:07:28.811Z,11.80
2022-08-11T03:10:04.041Z,9.90
2022-08-11T03:13:01.087Z,7.20
2022-08-11T03:16:03.986Z,9.35
2022-08-11T03:18:36.629Z,11.65
2022-08-11T03:21:09.280Z,9.40
2022-08-11T03:23:41.651Z,7.88
2022-08-11T03:26:17.604Z,8.52
2022-08-11T03:28:53.344Z,6.15
2022-08-11T03:31:26.637Z,8.05
2022-08-11T03:34:08.043Z,5.72
2022-08-11T03:37:16.274Z,5.03
2022-08-11T03:39:57.036Z,7.07
2022-08-11T03:42:29.020Z,7.65
2022-08-11T03:45:03.288Z,6.80
2022-08-11T03:47:52.417Z,7.78
2022-08-11T03:50:31.082Z,8.40
2022-08-11T03:53:07.038Z,6.60
2022-08-11T03:55:50.953Z,9.07
2022-08-11T03:58:31.851Z,6.95
2022-08-11T04:01:23.767Z,7.43
2022-08-11T04:04:06.423Z,7.40
2022-08-11T04:09:26.177Z,7.13
2022-08-11T04:12:34.668Z,6.75
2022-08-11T04:15:33.614Z,7.03
2022-08-11T04:18:26.822Z,8.20
2022-08-11T04:21:10.627Z,10.75
2022-08-11T04:24:35.403Z,6.10
2022-08-11T04:27:01.806Z,5.68
2022-08-11T04:30:03.752Z,8.18
2022-08-11T04:32:38.457Z,6.03
2022-08-11T04:35:18.389Z,6.25
2022-08-11T04:38:00.878Z,7.30
2022-08-11T04:40:51.446Z,5.95
2022-08-11T04:43:32.750Z,12.93
2022-08-11T04:46:22.401Z,5.22
2022-08-11T04:49:35.486Z,7.05
2022-08-11T04:52:37.770Z,9.25
2022-08-11T04:55:38.835Z,12.95
2022-08-11T04:58:33.094Z,15.65
2022-08-11T05:01:25.903Z,13.82
2022-08-11T05:04:31.488Z,22.13
2022-08-11T05:07:14.581Z,24.20
2022-08-11T05:09:53.322Z,23.88
2022-08-11T05:12:31.971Z,27.30
2022-08-11T05:15:19.765Z,28.60
2022-08-11T05:18:14.576Z,30.55
2022-08-11T05:21:07.779Z,19.92
2022-08-11T05:24:01.022Z,15.95
2022-08-11T05:26:50.759Z,25.48
2022-08-11T05:30:04.113Z,28.23
2022-08-11T05:33:01.457Z,25.70
2022-08-11T05:36:00.396Z,22.83
2022-08-11T05:38:44.739Z,28.83
2022-08-11T05:41:39.958Z,25.63
2022-08-11T05:44:26.993Z,33.10
2022-08-11T05:47:15.492Z,44.17
2022-08-11T05:50:13.579Z,41.63
2022-08-11T05:53:09.236Z,36.28
2022-08-11T05:56:02.120Z,35.33
2022-08-11T05:58:42.399Z,26.95
2022-08-11T06:01:30.495Z,43.70
2022-08-11T06:04:16.308Z,35.92
2022-08-11T06:06:52.433Z,32.40
2022-08-11T06:09:25.926Z,24.48
2022-08-11T06:12:00.128Z,32.58
2022-08-11T06:14:32.915Z,32.35
2022-08-11T06:17:07.274Z,36.03
2022-08-11T06:19:37.346Z,27.33
2022-08-11T06:22:07.288Z,29.80
2022-08-11T06:24:37.507Z,26.73
2022-08-11T06:27:15.052Z,34.17
2022-08-11T06:29:55.344Z,39.95
2022-08-11T06:32:30.734Z,43.45
2022-08-11T06:35:05.165Z,37.65
2022-08-11T06:37:43.672Z,52.70
2022-08-11T06:40:14.983Z,42.97
2022-08-11T06:42:50.303Z,50.08
2022-08-11T06:45:32.969Z,36.90
2022-08-11T06:50:51.011Z,39.85
2022-08-11T06:53:23.744Z,40.15
2022-08-11T06:56:11.077Z,40.22
2022-08-11T06:58:58.885Z,44.70
2022-08-11T07:01:37.237Z,38.78
2022-08-11T07:04:16.449Z,41.38
2022-08-11T07:07:18.698Z,48.22
2022-08-11T07:10:36.009Z,34.47
2022-08-11T07:13:38.176Z,41.53
2022-08-11T07:16:17.735Z,34.78
2022-08-11T07:19:16.552Z,29.42
2022-08-11T07:22:05.941Z,35.25
2022-08-11T07:25:02.597Z,32.30
2022-08-11T07:27:57.252Z,33.42
2022-08-11T07:30:27.165Z,32.17
2022-08-11T07:32:57.633Z,31.30
2022-08-11T07:35:33.722Z,31.15
2022-08-11T07:38:06.985Z,28.95
2022-08-11T07:40:37.690Z,31.45
2022-08-11T07:43:08.353Z,28.02
2022-08-11T07:45:55.618Z,23.88
2022-08-11T07:48:51.174Z,30.33
2022-08-11T07:51:39.894Z,27.65
2022-08-11T07:54:17.053Z,24.23
2022-08-11T07:56:55.627Z,27.85
2022-08-11T07:59:59.949Z,30.63
2022-08-11T08:02:59.098Z,27.73
2022-08-11T08:05:50.127Z,26.08
2022-08-11T08:08:41.618Z,26.58
2022-08-11T08:11:29.037Z,27.57
2022-08-11T08:14:16.368Z,21.70
2022-08-11T08:17:03.902Z,27.75
2022-08-11T08:19:33.854Z,24.67
2022-08-11T08:22:07.107Z,24.10
2022-08-11T08:24:54.185Z,25.13
2022-08-11T08:27:26.003Z,27.45
2022-08-11T08:30:16.737Z,26.17
2022-08-11T08:32:46.348Z,27.83
2022-08-11T08:35:17.794Z,25.75
2022-08-11T08:37:50.990Z,22.15
2022-08-11T08:40:21.894Z,23.02
2022-08-11T08:42:55.418Z,23.38
2022-08-11T08:45:25.134Z,24.85
2022-08-11T08:47:57.150Z,19.15
2022-08-11T08:50:52.027Z,20.63
2022-08-11T08:55:57.002Z,18.70
2022-08-11T08:58:27.463Z,22.80
2022-08-11T09:01:00.733Z,17.33
2022-08-11T09:04:06.943Z,21.17
2022-08-11T09:06:20.693Z,22.27
2022-08-11T09:08:51.965Z,15.27
2022-08-11T09:11:42.704Z,16.02
2022-08-11T09:14:15.089Z,15.30
2022-08-11T09:16:45.059Z,11.93
2022-08-11T09:19:17.589Z,13.48
2022-08-11T09:22:09.039Z,15.20
2022-08-11T09:24:56.288Z,15.93
2022-08-11T09:27:29.762Z,14.00
2022-08-11T09:29:59.955Z,11.35
2022-08-11T09:32:31.622Z,11.20
2022-08-11T09:35:01.004Z,12.80
2022-08-11T09:37:55.203Z,12.57
2022-08-11T09:40:33.725Z,14.10
2022-08-11T09:43:23.933Z,15.30
2022-08-11T09:45:54.379Z,11.68
2022-08-11T09:48:24.955Z,11.25
2022-08-11T09:50:55.301Z,9.00
2022-08-11T09:53:36.433Z,9.50
2022-08-11T09:56:30.209Z,8.90
2022-08-11T09:59:01.383Z,9.40
2022-08-11T10:01:33.249Z,11.47
2022-08-11T10:04:03.685Z,8.27
2022-08-11T10:06:54.410Z,7.82
2022-08-11T10:09:27.248Z,6.47
2022-08-11T10:11:59.311Z,7.47
2022-08-11T10:14:49.635Z,8.75
2022-08-11T10:17:21.708Z,7.75
2022-08-11T10:22:51.601Z,8.82
2022-08-11T10:25:39.866Z,8.55
2022-08-11T10:28:32.686Z,5.45
2022-08-11T10:31:18.494Z,6.05
2022-08-11T10:34:04.440Z,6.25
2022-08-11T10:36:34.983Z,4.90
2022-08-11T10:39:05.250Z,5.80
2022-08-11T10:42:07.539Z,7.80
2022-08-11T10:44:39.301Z,4.63
2022-08-11T10:47:27.910Z,4.72
2022-08-11T10:50:16.380Z,5.57
2022-08-11T10:53:04.014Z,7.75
2022-08-11T10:55:50.983Z,8.38
2022-08-11T10:58:38.150Z,3.83
2022-08-11T11:01:07.813Z,4.70
2022-08-11T11:03:38.627Z,4.05
2022-08-11T11:06:28.870Z,5.05
2022-08-11T11:09:04.533Z,6.18
2022-08-11T11:11:56.793Z,5.78
2022-08-11T11:14:49.917Z,5.15
2022-08-11T11:17:46.318Z,3.65
2022-08-11T11:20:36.918Z,5.28
2022-08-11T11:25:40.378Z,4.85
2022-08-11T11:28:18.397Z,8.75
2022-08-11T11:30:53.526Z,3.13
2022-08-11T11:33:26.750Z,2.53
2022-08-11T11:36:05.921Z,4.28
2022-08-11T11:38:35.276Z,5.13
2022-08-11T11:41:22.444Z,6.70
2022-08-11T11:43:51.702Z,4.68
2022-08-11T11:46:25.961Z,6.22
2022-08-11T11:48:58.792Z,4.28
2022-08-11T11:51:29.903Z,5.03
2022-08-11T11:53:59.055Z,4.45
2022-08-11T11:56:28.152Z,2.13
2022-08-11T11:59:18.622Z,3.97
2022-08-11T12:01:52.741Z,1.80
2022-08-11T12:04:23.598Z,1.50
2022-08-11T12:07:15.380Z,2.13
2022-08-11T12:09:45.004Z,1.45
2022-08-11T12:12:32.069Z,2.90
2022-08-11T12:15:01.493Z,2.75
2022-08-11T12:17:31.103Z,3.25
2022-08-11T12:20:01.736Z,1.95
2022-08-11T12:22:52.906Z,2.13
2022-08-11T12:25:43.116Z,3.10
2022-08-11T12:28:12.692Z,3.80
2022-08-11T12:33:17.456Z,2.05
2022-08-11T12:36:00.461Z,1.33
2022-08-11T12:38:36.204Z,3.55
2022-08-11T12:41:33.238Z,4.00
2022-08-11T12:44:37.162Z,3.50
2022-08-11T12:47:07.933Z,3.05
2022-08-11T12:50:01.848Z,2.97
2022-08-11T12:52:35.009Z,4.40
2022-08-11T12:55:13.236Z,3.45
2022-08-11T12:58:02.139Z,1.75
2022-08-11T13:00:50.195Z,2.40
2022-08-11T13:03:39.073Z,1.80
2022-08-11T13:06:09.368Z,2.05
2022-08-11T13:08:39.937Z,3.15
2022-08-11T13:11:56.479Z,2.83
2022-08-11T13:14:19.052Z,2.17
2022-08-11T13:17:06.425Z,3.92
2022-08-11T13:19:36.059Z,4.30
2022-08-11T13:22:07.377Z,1.50
2022-08-11T13:24:38.176Z,3.83
2022-08-11T13:27:09.329Z,2.08
2022-08-11T13:29:40.609Z,2.50
2022-08-11T13:32:09.751Z,1.13
2022-08-11T13:34:42.681Z,2.03
2022-08-11T13:37:13.275Z,3.72
2022-08-11T13:39:47.462Z,1.90
2022-08-11T13:42:20.315Z,1.95
2022-08-11T13:44:49.679Z,2.13
2022-08-11T13:47:18.855Z,3.50
2022-08-11T13:49:48.465Z,3.50
2022-08-11T13:52:18.570Z,2.42
2022-08-11T13:54:49.396Z,1.63
2022-08-11T13:58:07.179Z,1.63
2022-08-11T14:00:14.538Z,1.73
2022-08-11T14:02:56.123Z,4.78
2022-08-11T14:05:27.797Z,2.25
2022-08-11T14:08:00.891Z,2.92
2022-08-11T14:10:32.866Z,3.17
2022-08-11T14:13:23.281Z,1.17
2022-08-11T14:15:58.537Z,2.70
2022-08-11T14:18:33.881Z,2.45
2022-08-11T14:21:22.946Z,1.40
2022-08-11T14:23:55.226Z,2.65
2022-08-11T14:26:26.447Z,1.75
2022-08-11T14:29:00.692Z,1.50
2022-08-11T14:31:31.064Z,1.65
2022-08-11T14:34:06.244Z,3.08
2022-08-11T14:36:39.090Z,2.83
2022-08-11T14:39:12.946Z,1.73
2022-08-11T14:42:10.736Z,4.63
2022-08-11T14:45:05.407Z,2.50
2022-08-11T14:47:35.773Z,1.20
2022-08-11T14:50:11.128Z,3.75
2022-08-11T14:52:47.062Z,4.78
2022-08-11T14:55:30.479Z,2.05
2022-08-11T14:58:00.298Z,3.25
2022-08-11T15:00:32.020Z,2.63
2022-08-11T15:03:10.692Z,2.08
2022-08-11T15:05:42.029Z,3.42
2022-08-11T15:08:43.008Z,1.88
2022-08-11T15:11:44.171Z,2.88
2022-08-11T15:14:14.118Z,4.45
2022-08-11T15:17:03.149Z,1.85
2022-08-11T15:19:40.623Z,1.63
2022-08-11T15:22:28.066Z,4.10
2022-08-11T15:24:59.405Z,2.38
2022-08-11T15:27:47.400Z,3.85
2022-08-11T15:30:34.561Z,2.55
2022-08-11T15:33:25.797Z,4.43
2022-08-11T15:36:16.544Z,1.33
2022-08-11T15:38:49.397Z,2.65
2022-08-11T15:41:58.799Z,3.10
2022-08-11T15:45:03.313Z,8.50
2022-08-11T15:47:37.841Z,1.40
2022-08-11T15:50:13.812Z,2.92
2022-08-11T15:52:48.949Z,1.55
2022-08-11T15:55:21.422Z,1.35
2022-08-11T15:58:09.964Z,2.80
2022-08-11T16:01:09.580Z,3.10
2022-08-11T16:04:07.174Z,1.67
2022-08-11T16:06:47.879Z,1.92
2022-08-11T16:09:35.550Z,5.30
2022-08-11T16:12:23.078Z,3.50
2022-08-11T16:15:20.567Z,3.08
2022-08-11T16:17:54.862Z,2.03
2022-08-11T16:20:25.859Z,1.37
2022-08-11T16:23:02.339Z,2.15
2022-08-11T16:27:01.259Z,1.98
2022-08-11T16:30:55.596Z,5.85
2022-08-11T16:33:49.833Z,2.90
2022-08-11T16:36:36.414Z,3.58
2022-08-11T16:39:08.590Z,1.55
2022-08-11T16:44:57.220Z,3.65
2022-08-11T16:48:02.122Z,2.90
2022-08-11T16:50:17.340Z,1.70
2022-08-11T16:52:46.981Z,3.83
2022-08-11T16:55:51.408Z,4.85
2022-08-11T16:58:26.873Z,2.97
2022-08-11T17:01:00.715Z,2.30
2022-08-11T17:03:49.353Z,2.38
2022-08-11T17:06:40.134Z,1.70
2022-08-11T17:09:28.873Z,3.03
2022-08-11T17:12:18.749Z,1.90
2022-08-11T17:14:50.920Z,2.03
2022-08-11T17:17:22.799Z,2.38
2022-08-11T17:20:41.240Z,2.03
2022-08-11T17:23:02.339Z,3.92
2022-08-11T17:25:59.362Z,2.03
2022-08-11T17:28:24.576Z,4.15
2022-08-11T17:31:18.421Z,3.53
2022-08-11T17:34:11.322Z,3.72
2022-08-11T17:36:45.313Z,4.47
2022-08-11T17:39:17.236Z,4.93
2022-08-11T17:42:05.228Z,1.88
2022-08-11T17:44:54.524Z,3.95
2022-08-11T17:47:43.985Z,5.53
2022-08-11T17:50:16.731Z,3.60
2022-08-11T17:53:05.933Z,2.22
2022-08-11T17:55:54.601Z,2.60
2022-08-11T17:58:47.541Z,3.88
2022-08-11T18:01:21.612Z,6.55
2022-08-11T18:03:57.749Z,7.38
2022-08-11T18:06:34.265Z,5.07
2022-08-11T18:09:25.216Z,2.88
2022-08-11T18:12:13.334Z,2.35
2022-08-11T18:15:01.781Z,3.35
2022-08-11T18:17:51.385Z,2.65
2022-08-11T18:20:39.539Z,4.63
2022-08-11T18:23:40.514Z,2.08
2022-08-11T18:26:36.093Z,3.33
2022-08-11T18:29:23.886Z,2.78
2022-08-11T18:32:22.106Z,5.22
2022-08-11T18:35:13.684Z,2.17
2022-08-11T18:38:05.089Z,5.10
2022-08-11T18:40:54.240Z,3.65
2022-08-11T18:43:44.002Z,5.32
2022-08-11T18:46:32.950Z,3.53
2022-08-11T18:49:27.268Z,5.72
2022-08-11T18:52:34.684Z,2.90
2022-08-11T18:55:23.350Z,4.03
2022-08-11T18:58:11.869Z,3.45
2022-08-11T19:01:01.362Z,5.50
2022-08-11T19:03:51.503Z,3.72
2022-08-11T19:06:43.711Z,3.35
2022-08-11T19:09:34.532Z,5.27
2022-08-11T19:12:23.270Z,3.95
2022-08-11T19:15:13.009Z,6.20
2022-08-11T19:18:07.215Z,3.33
2022-08-11T19:21:01.814Z,2.38
2022-08-11T19:23:54.856Z,3.85
2022-08-11T19:26:44.040Z,5.57
2022-08-11T19:30:12.036Z,3.58
2022-08-11T19:32:40.553Z,4.97
2022-08-11T19:35:28.528Z,3.53
2022-08-11T19:38:22.066Z,4.22
2022-08-11T19:41:11.805Z,7.95
2022-08-11T19:44:00.441Z,3.78
2022-08-11T19:46:48.097Z,5.95
2022-08-11T19:49:41.072Z,4.25
2022-08-11T19:52:28.711Z,4.43
2022-08-11T19:55:16.730Z,2.58
2022-08-11T19:58:04.008Z,3.20
2022-08-11T20:00:54.118Z,4.18
2022-08-11T20:03:41.461Z,3.70
2022-08-11T20:06:29.601Z,4.68
2022-08-11T20:09:23.054Z,9.95
2022-08-11T20:12:12.894Z,7.82
2022-08-11T20:15:01.565Z,4.32
2022-08-11T20:17:52.419Z,8.15
2022-08-11T20:20:40.147Z,7.68
2022-08-11T20:23:28.705Z,4.90
2022-08-11T20:26:30.646Z,3.53
2022-08-11T20:29:19.875Z,5.80
2022-08-11T20:32:09.809Z,6.20
2022-08-11T20:35:00.002Z,7.03
2022-08-11T20:37:51.019Z,5.57
2022-08-11T20:40:40.253Z,6.90
2022-08-11T20:44:06.984Z,5.13
2022-08-11T20:46:38.264Z,3.60
2022-08-11T20:49:45.012Z,4.70
2022-08-11T20:52:41.890Z,3.70
2022-08-11T20:55:51.932Z,4.93
2022-08-11T20:59:04.052Z,3.63
2022-08-11T21:01:45.911Z,4.28
2022-08-11T21:07:38.671Z,6.13
2022-08-11T21:10:30.245Z,5.68
2022-08-11T21:13:25.665Z,3.63
2022-08-11T21:16:25.064Z,3.35
2022-08-11T21:19:16.232Z,7.53
2022-08-11T21:22:09.393Z,4.97
2022-08-11T21:24:57.426Z,5.78
2022-08-11T21:27:47.446Z,8.00
2022-08-11T21:30:34.770Z,5.53
2022-08-11T21:33:21.881Z,7.18
2022-08-11T21:36:09.105Z,11.43
2022-08-11T21:38:56.686Z,5.90
2022-08-11T21:41:49.246Z,6.65
2022-08-11T21:44:38.035Z,5.38
2022-08-11T21:47:42.414Z,5.00
2022-08-11T21:50:29.562Z,11.10
2022-08-11T21:53:18.118Z,5.57
2022-08-11T21:56:06.204Z,6.97
2022-08-11T21:58:53.735Z,8.50
2022-08-11T22:01:43.148Z,7.50
2022-08-11T22:04:30.782Z,7.03
2022-08-11T22:07:18.702Z,11.45
2022-08-11T22:10:40.361Z,9.80
2022-08-11T22:13:12.720Z,9.88
2022-08-11T22:15:59.490Z,12.55
2022-08-11T22:18:48.172Z,10.32
2022-08-11T22:22:02.380Z,7.32
2022-08-11T22:24:44.770Z,7.35
2022-08-11T22:27:31.985Z,6.82
2022-08-11T22:30:18.823Z,7.65
2022-08-11T22:33:06.546Z,7.55
2022-08-11T22:35:55.216Z,7.95
2022-08-11T22:38:42.540Z,9.40
2022-08-11T22:41:34.067Z,9.57
2022-08-11T22:44:21.499Z,7.93
2022-08-11T22:47:09.239Z,7.90
2022-08-11T22:49:58.761Z,11.30
2022-08-11T22:52:47.828Z,11.75
2022-08-11T22:55:36.546Z,7.78
2022-08-11T22:58:23.516Z,9.45
2022-08-11T23:01:10.565Z,8.82
2022-08-11T23:03:57.654Z,11.50
2022-08-11T23:06:45.042Z,6.90
2022-08-11T23:09:33.912Z,10.23
2022-08-11T23:12:21.420Z,8.30
2022-08-11T23:15:08.786Z,10.93
2022-08-11T23:17:56.757Z,7.78
2022-08-11T23:20:54.584Z,9.15
2022-08-11T23:23:42.811Z,5.57
2022-08-11T23:26:31.462Z,8.30
2022-08-11T23:29:18.443Z,9.20
2022-08-11T23:32:05.565Z,9.82
2022-08-11T23:35:03.972Z,9.52
2022-08-11T23:38:01.760Z,11.35
2022-08-11T23:40:48.826Z,9.82
2022-08-11T23:43:41.250Z,8.70
2022-08-11T23:46:28.413Z,7.75
2022-08-11T23:49:16.477Z,8.77
2022-08-11T23:52:03.605Z,6.70
2022-08-11T23:54:51.989Z,11.90
2022-08-11T23:57:47.895Z,12.48
